Aviation Digital Data Service (ADDS)

Output produced by METARs form (0421 UTC 25 July 2016)
found at http://aviationweather.gov/adds/metars/
 
KARA 242320Z 2500/2524 VRB06KT P6SM VCTS SCT040CB BKN100 
     FM250200 VRB03KT P6SM SCT050 BKN250 
     FM251200 VRB05KT P6SM VCSH SCT025